Duxbury, Massachusetts
Current Conditions -  °F | °C
As of 3:35 AM on Tuesday 27 Jan 2015 (Local Time) from KGHG Reporting Station
Heavy Snow Heavy Snow  
Wind Chill: 17°   Ceiling: 100
Heat Index: 30°   Visibility: NA
Dew Point: 28°   Wind: 22mph
Humidity: 93%   Direction: 10°N
Pressure: 29.57"   Gusts: 49mph
Location:  42.04°N, 70.67°W
Report Text: KGHG 270835Z AUTO 01019G43KT 020V360 +SN OVC001 M01/M02 A2957 RMK AO2 P0001
Loading
Personal Weather Stations






























Interactive Weather Map New forecast layout! Learn more

10-Day Weather Forecast

Advertisements
Track Severe Weather on mobile